Time;durP1;ratioP1;P1;durP2;ratioP2;P2;SDS_P1;SDS_P2;PMS_P1;PMS_P2;Temp;Humidity;BMP_temperature;BMP_pressure;BME280_temperature;BME280_humidity;BME280_pressure;Samples;Min_cycle;Max_cycle;Signal;HPM_P1;HPM_P2
2023/12/20 06:48:51;;;;;;;0.20;0.20;;;7.50;99.90;;;;;;5088488;27;20421;-76
2023/12/20 06:51:17;;;;;;;0.20;0.20;;;7.80;99.90;;;;;;5084994;28;20048;-76
2023/12/20 06:53:43;;;;;;;0.30;0.30;;;7.30;99.90;;;;;;5103218;28;20056;-76
2023/12/20 06:56:12;;;;;;;0.20;0.20;;;7.30;99.90;;;;;;5082965;28;20509;-76
2023/12/20 06:58:38;;;;;;;0.10;0.10;;;7.30;99.90;;;;;;5092055;28;20071;-75
2023/12/20 07:01:04;;;;;;;0.20;0.20;;;7.40;99.90;;;;;;5092462;28;20438;-75
2023/12/20 07:03:30;;;;;;;0.20;0.20;;;7.40;99.90;;;;;;5094710;28;20059;-76
2023/12/20 07:05:55;;;;;;;0.20;0.20;;;7.50;99.90;;;;;;5084842;28;20056;-75
2023/12/20 07:08:21;;;;;;;0.20;0.20;;;7.50;99.90;;;;;;5090950;28;20036;-77
2023/12/20 07:10:47;;;;;;;0.20;0.20;;;7.50;99.90;;;;;;5089413;28;20051;-76
2023/12/20 07:13:13;;;;;;;0.20;0.20;;;7.70;99.90;;;;;;5089804;28;20672;-77
2023/12/20 07:15:39;;;;;;;0.10;0.10;;;7.60;99.90;;;;;;5088318;28;20046;-76
2023/12/20 07:18:06;;;;;;;0.20;0.20;;;7.60;99.90;;;;;;5086264;28;20484;-76
2023/12/20 07:20:32;;;;;;;0.20;0.20;;;7.60;99.90;;;;;;5086483;28;20040;-76
2023/12/20 07:22:57;;;;;;;0.20;0.20;;;7.70;99.90;;;;;;5084668;28;20044;-77
2023/12/20 07:25:23;;;;;;;0.20;0.20;;;7.70;99.90;;;;;;5083781;28;20044;-76
2023/12/20 07:27:48;;;;;;;0.20;0.20;;;7.70;99.90;;;;;;5084463;28;20056;-76
2023/12/20 07:30:14;;;;;;;0.20;0.20;;;7.70;99.90;;;;;;5093784;28;20048;-76
2023/12/20 07:32:40;;;;;;;0.20;0.20;;;7.80;99.90;;;;;;5094516;28;20105;-76
2023/12/20 07:35:06;;;;;;;0.10;0.10;;;7.80;99.90;;;;;;5101006;28;20048;-76
2023/12/20 07:37:32;;;;;;;0.20;0.20;;;7.80;99.90;;;;;;5092790;28;20055;-76
2023/12/20 07:39:57;;;;;;;0.20;0.20;;;7.80;99.90;;;;;;5083445;28;20093;-75
2023/12/20 07:42:23;;;;;;;0.20;0.20;;;7.90;99.90;;;;;;5085858;28;20108;-75
2023/12/20 07:44:49;;;;;;;0.20;0.20;;;7.90;99.90;;;;;;5089885;28;20051;-74
2023/12/20 07:47:16;;;;;;;0.20;0.20;;;8.00;99.90;;;;;;5084849;28;20044;-76
2023/12/20 07:49:42;;;;;;;0.20;0.20;;;8.00;99.90;;;;;;5084920;28;20245;-76
2023/12/20 07:52:08;;;;;;;0.20;0.20;;;8.00;99.90;;;;;;5096491;28;20677;-75
2023/12/20 07:54:34;;;;;;;0.20;0.20;;;8.00;99.90;;;;;;5088212;28;20516;-74
2023/12/20 07:56:59;;;;;;;0.20;0.20;;;8.00;99.90;;;;;;5099963;28;20089;-76
2023/12/20 07:59:25;;;;;;;0.10;0.10;;;8.00;99.90;;;;;;5089757;28;20037;-77
2023/12/20 08:01:51;;;;;;;0.17;0.17;;;8.00;99.90;;;;;;5076165;28;20041;-76
2023/12/20 08:04:17;;;;;;;0.13;0.13;;;8.00;99.90;;;;;;5070464;28;20044;-77
2023/12/20 08:06:42;;;;;;;0.20;0.20;;;8.00;99.90;;;;;;5071798;28;20052;-75
2023/12/20 08:09:08;;;;;;;0.10;0.10;;;8.00;99.90;;;;;;5072174;28;20048;-73
2023/12/20 08:11:34;;;;;;;0.20;0.20;;;8.00;99.90;;;;;;5075873;28;20045;-74
2023/12/20 08:14:00;;;;;;;0.10;0.10;;;8.10;99.90;;;;;;5070063;28;20044;-74
2023/12/20 08:16:25;;;;;;;0.20;0.20;;;8.00;99.90;;;;;;5085145;28;20115;-74
2023/12/20 08:18:52;;;;;;;0.20;0.20;;;8.00;99.90;;;;;;5084677;28;20147;-74
2023/12/20 08:21:20;;;;;;;0.20;0.20;;;8.00;99.90;;;;;;5076371;28;20060;-74
2023/12/20 08:23:46;;;;;;;0.17;0.17;;;8.10;99.90;;;;;;5070820;28;20044;-74
2023/12/20 08:26:12;;;;;;;0.20;0.20;;;8.00;99.90;;;;;;5076524;28;20037;-73
2023/12/20 08:28:37;;;;;;;0.20;0.20;;;8.10;99.90;;;;;;5078146;28;20040;-73
2023/12/20 08:31:03;;;;;;;0.20;0.20;;;8.10;99.90;;;;;;5069767;28;20055;-74
2023/12/20 08:33:29;;;;;;;0.20;0.20;;;8.20;99.90;;;;;;5069714;28;20082;-74
2023/12/20 08:35:54;;;;;;;0.20;0.20;;;8.20;99.90;;;;;;5079859;28;20386;-73
2023/12/20 08:38:20;;;;;;;0.10;0.10;;;8.10;99.90;;;;;;5071311;28;20036;-74
2023/12/20 08:40:46;;;;;;;0.20;0.20;;;7.80;99.90;;;;;;5087364;28;20054;-75
2023/12/20 08:43:13;;;;;;;0.20;0.20;;;7.30;99.90;;;;;;5090914;28;20044;-74
2023/12/20 08:45:39;;;;;;;0.20;0.20;;;6.90;99.90;;;;;;5074227;28;20553;-75
2023/12/20 08:48:05;;;;;;;0.10;0.10;;;6.60;99.90;;;;;;5070530;28;20408;-74
2023/12/20 08:50:30;;;;;;;0.20;0.20;;;6.30;99.90;;;;;;5071233;28;20484;-74
2023/12/20 08:52:56;;;;;;;0.20;0.20;;;6.30;99.90;;;;;;5071549;28;20063;-73
2023/12/20 08:55:22;;;;;;;0.10;0.10;;;6.00;99.90;;;;;;5077298;28;20684;-73
2023/12/20 08:57:49;;;;;;;0.15;0.15;;;6.00;99.90;;;;;;5071036;28;20058;-74
2023/12/20 09:00:14;;;;;;;0.20;0.20;;;6.30;99.90;;;;;;5079580;28;20460;-73
2023/12/20 09:02:41;;;;;;;0.20;0.20;;;5.80;99.90;;;;;;5071003;28;20053;-74
2023/12/20 09:05:07;;;;;;;0.20;0.20;;;5.80;99.90;;;;;;5083435;28;20041;-74
2023/12/20 09:07:32;;;;;;;0.20;0.20;;;5.80;99.90;;;;;;5070315;28;20416;-72
2023/12/20 09:09:58;;;;;;;0.20;0.20;;;5.80;99.90;;;;;;5075173;28;20043;-74
2023/12/20 09:12:25;;;;;;;0.10;0.10;;;5.80;99.90;;;;;;5073966;28;20373;-73
2023/12/20 09:14:51;;;;;;;0.20;0.20;;;5.80;99.90;;;;;;5071044;28;20036;-73
2023/12/20 09:17:18;;;;;;;0.20;0.20;;;5.80;99.90;;;;;;5068078;28;20036;-73
2023/12/20 09:19:44;;;;;;;0.20;0.20;;;5.80;99.90;;;;;;5068901;28;20052;-73
2023/12/20 09:22:11;;;;;;;0.20;0.20;;;5.80;99.90;;;;;;5075978;28;20032;-73
2023/12/20 09:24:36;;;;;;;0.20;0.20;;;5.80;99.90;;;;;;5090602;28;20449;-73
2023/12/20 09:27:03;;;;;;;0.20;0.20;;;5.80;99.90;;;;;;5061371;28;20048;-73
2023/12/20 09:29:29;;;;;;;0.20;0.20;;;5.80;99.90;;;;;;5082670;28;20052;-73
2023/12/20 09:31:56;;;;;;;0.20;0.20;;;5.90;99.90;;;;;;5068024;28;20044;-73
2023/12/20 09:34:22;;;;;;;0.20;0.20;;;5.90;99.90;;;;;;5068075;28;20391;-74
2023/12/20 09:36:48;;;;;;;0.20;0.20;;;5.90;99.90;;;;;;5069865;28;20049;-74
2023/12/20 09:39:15;;;;;;;0.20;0.20;;;5.90;99.90;;;;;;5086338;28;20048;-74
2023/12/20 09:41:46;;;;;;;0.20;0.20;;;6.00;99.90;;;;;;5068929;28;20069;-75
2023/12/20 09:44:19;;;;;;;0.20;0.20;;;6.10;99.90;;;;;;5074352;28;20044;-74
2023/12/20 09:46:49;;;;;;;0.20;0.20;;;6.00;99.90;;;;;;5082199;28;20105;-74
2023/12/20 09:49:18;;;;;;;0.20;0.20;;;6.00;99.90;;;;;;5069781;28;20076;-74
2023/12/20 09:51:46;;;;;;;0.20;0.20;;;6.00;99.90;;;;;;5068890;28;20118;-74
2023/12/20 09:54:15;;;;;;;0.20;0.20;;;6.10;99.90;;;;;;5069047;28;20058;-74
2023/12/20 09:56:40;;;;;;;0.10;0.10;;;6.10;99.90;;;;;;5068477;28;20045;-74
2023/12/20 09:59:06;;;;;;;0.20;0.20;;;6.10;99.90;;;;;;5069009;28;20040;-74
2023/12/20 10:01:33;;;;;;;0.20;0.20;;;6.10;99.90;;;;;;5080267;28;20537;-75
2023/12/20 10:04:00;;;;;;;0.20;0.20;;;6.30;99.90;;;;;;5072723;28;20048;-74
2023/12/20 10:06:26;;;;;;;0.20;0.20;;;6.20;99.90;;;;;;5077967;28;20493;-73
2023/12/20 10:08:53;;;;;;;0.20;0.20;;;6.20;99.90;;;;;;5080379;28;20056;-74
2023/12/20 10:11:19;;;;;;;0.20;0.20;;;6.30;99.90;;;;;;5078470;28;20048;-73
2023/12/20 10:13:47;;;;;;;0.20;0.20;;;6.40;99.90;;;;;;5082874;28;20048;-74
2023/12/20 10:16:13;;;;;;;0.20;0.20;;;6.50;99.90;;;;;;5068700;28;20084;-74
2023/12/20 10:18:39;;;;;;;0.20;0.20;;;6.60;99.90;;;;;;5072169;28;20083;-74
2023/12/20 10:21:07;;;;;;;0.20;0.20;;;6.80;99.90;;;;;;5069172;28;20064;-74
2023/12/20 10:23:32;;;;;;;0.20;0.20;;;6.80;99.90;;;;;;5076577;28;20051;-74
2023/12/20 10:26:01;;;;;;;0.10;0.10;;;6.90;99.90;;;;;;5069355;28;20052;-74
2023/12/20 10:28:34;;;;;;;0.15;0.15;;;6.90;99.90;;;;;;5077054;28;20459;-75
2023/12/20 10:31:00;;;;;;;0.20;0.20;;;7.00;99.90;;;;;;5067668;28;20051;-75
2023/12/20 10:33:27;;;;;;;0.20;0.20;;;7.30;99.90;;;;;;5072709;28;20047;-74
2023/12/20 10:35:53;;;;;;;0.20;0.20;;;7.40;99.90;;;;;;5066078;28;20447;-74
2023/12/20 10:38:19;;;;;;;0.10;0.10;;;7.60;99.90;;;;;;5078009;28;20139;-74
2023/12/20 10:40:49;;;;;;;0.13;0.13;;;8.00;99.90;;;;;;5064366;28;20128;-76
2023/12/20 10:43:15;;;;;;;0.20;0.20;;;8.40;99.90;;;;;;5074663;28;20075;-75
2023/12/20 10:45:43;;;;;;;0.10;0.10;;;8.90;99.90;;;;;;5072233;28;20093;-75
2023/12/20 10:48:11;;;;;;;0.20;0.20;;;9.30;99.90;;;;;;5072705;28;20116;-76
2023/12/20 10:50:41;;;;;;;0.10;0.10;;;9.60;99.90;;;;;;5077286;28;20044;-76
2023/12/20 10:53:07;;;;;;;0.17;0.17;;;9.60;99.90;;;;;;5070244;28;20048;-75
2023/12/20 10:55:34;;;;;;;0.20;0.20;;;9.70;99.90;;;;;;5073592;28;20579;-75
2023/12/20 10:58:07;;;;;;;0.10;0.10;;;9.60;99.90;;;;;;5068750;28;20109;-76
2023/12/20 11:00:38;;;;;;;0.20;0.20;;;9.30;99.90;;;;;;5070066;28;20448;-76
2023/12/20 11:03:08;;;;;;;0.20;0.20;;;9.20;99.90;;;;;;5071910;28;20047;-80
2023/12/20 11:06:01;;;;;;;0.20;0.20;;;9.20;99.90;;;;;;5074908;28;20060;-76
2023/12/20 11:08:35;;;;;;;0.20;0.20;;;9.10;99.90;;;;;;5070574;28;20125;-76
2023/12/20 11:11:12;;;;;;;0.13;0.13;;;8.90;99.90;;;;;;5069463;28;20197;-77
2023/12/20 11:13:44;;;;;;;0.17;0.17;;;8.80;99.90;;;;;;5072216;28;20048;-80
2023/12/20 11:16:10;;;;;;;0.20;0.20;;;8.50;99.90;;;;;;5070382;28;20060;-76
2023/12/20 11:18:36;;;;;;;0.10;0.10;;;8.40;99.90;;;;;;5071415;28;20047;-77
2023/12/20 11:21:04;;;;;;;0.10;0.10;;;8.30;99.90;;;;;;5088703;28;20415;-78
2023/12/20 11:23:33;;;;;;;0.10;0.10;;;8.20;99.90;;;;;;5086992;28;20036;-76
2023/12/20 11:25:59;;;;;;;0.10;0.10;;;8.10;99.90;;;;;;5059559;28;20044;-77
2023/12/20 11:28:26;;;;;;;0.10;0.10;;;8.10;99.90;;;;;;5067561;28;20391;-75
2023/12/20 11:30:58;;;;;;;0.10;0.10;;;8.00;99.90;;;;;;5066413;28;20041;-76
2023/12/20 11:33:37;;;;;;;0.10;0.10;;;7.90;99.90;;;;;;5079547;28;20041;-76
2023/12/20 11:36:03;;;;;;;0.10;0.10;;;7.90;99.90;;;;;;5063171;28;20151;-75
2023/12/20 11:38:49;;;;;;;0.20;0.20;;;7.90;99.90;;;;;;5080036;28;20044;-75
2023/12/20 11:41:15;;;;;;;0.20;0.20;;;7.90;99.90;;;;;;5079253;28;20040;-76
2023/12/20 11:43:41;;;;;;;0.10;0.10;;;7.90;99.90;;;;;;5071794;28;20534;-77
2023/12/20 11:46:12;;;;;;;0.20;0.20;;;8.00;99.90;;;;;;5070531;28;20055;-75
2023/12/20 11:48:40;;;;;;;0.20;0.20;;;7.90;99.90;;;;;;5071935;28;20049;-76
2023/12/20 11:51:13;;;;;;;0.13;0.13;;;8.00;99.90;;;;;;5071661;28;20072;-75
2023/12/20 11:53:40;;;;;;;0.10;0.10;;;7.90;99.90;;;;;;5051836;28;20048;-76
2023/12/20 11:56:06;;;;;;;0.15;0.15;;;7.90;99.90;;;;;;5068643;28;20041;-78
2023/12/20 11:58:32;;;;;;;0.10;0.10;;;7.90;99.90;;;;;;5075465;28;20483;-76
2023/12/20 12:00:58;;;;;;;0.20;0.20;;;7.80;99.90;;;;;;5087168;28;20127;-79
2023/12/20 12:03:24;;;;;;;0.20;0.20;;;7.80;99.90;;;;;;5079530;28;20514;-77
2023/12/20 12:05:50;;;;;;;0.10;0.10;;;7.80;99.90;;;;;;5092110;28;20047;-76
2023/12/20 12:08:16;;;;;;;0.15;0.15;;;7.80;99.90;;;;;;5077856;28;20054;-76
2023/12/20 12:10:43;;;;;;;0.10;0.10;;;7.80;99.90;;;;;;5070426;28;20123;-76
2023/12/20 12:13:09;;;;;;;0.10;0.10;;;7.80;99.90;;;;;;5069955;28;20067;-77
2023/12/20 12:15:36;;;;;;;0.20;0.20;;;7.70;99.90;;;;;;5071892;28;20097;-77
2023/12/20 12:18:02;;;;;;;0.20;0.20;;;7.70;99.90;;;;;;5070225;28;20044;-76
2023/12/20 12:20:28;;;;;;;0.20;0.20;;;7.70;99.90;;;;;;5070285;28;20055;-76
2023/12/20 12:23:12;;;;;;;0.20;0.20;;;7.70;99.90;;;;;;5069745;28;20045;-76
2023/12/20 12:25:38;;;;;;;0.13;0.13;;;7.70;99.90;;;;;;5067620;28;20033;-77
2023/12/20 12:28:04;;;;;;;0.13;0.13;;;7.70;99.90;;;;;;5067334;28;20373;-76
2023/12/20 12:30:30;;;;;;;0.20;0.20;;;7.70;99.90;;;;;;5069189;28;20040;-77
2023/12/20 12:32:57;;;;;;;0.20;0.20;;;7.70;99.90;;;;;;5073060;28;20028;-76
2023/12/20 12:35:23;;;;;;;0.20;0.20;;;7.80;99.90;;;;;;5069130;28;20049;-76
2023/12/20 12:37:49;;;;;;;0.20;0.20;;;7.60;99.90;;;;;;5067858;28;20041;-77
2023/12/20 12:40:16;;;;;;;0.20;0.20;;;7.60;99.90;;;;;;5081280;28;20508;-77
2023/12/20 12:42:43;;;;;;;0.20;0.20;;;7.70;99.90;;;;;;5073877;28;20043;-77
2023/12/20 12:45:11;;;;;;;0.20;0.20;;;7.60;99.90;;;;;;5069120;28;20123;-77
2023/12/20 12:47:37;;;;;;;0.20;0.20;;;7.60;99.90;;;;;;5073451;28;20060;-76
2023/12/20 12:50:03;;;;;;;0.20;0.20;;;7.60;99.90;;;;;;5070240;28;20044;-76
2023/12/20 12:52:30;;;;;;;0.20;0.20;;;7.60;99.90;;;;;;5075730;28;20040;-76
2023/12/20 12:54:56;;;;;;;0.20;0.20;;;7.70;99.90;;;;;;5068136;28;20102;-76
2023/12/20 12:57:21;;;;;;;0.13;0.13;;;7.70;99.90;;;;;;5069863;28;20248;-76
2023/12/20 12:59:47;;;;;;;0.10;0.10;;;7.80;99.90;;;;;;5087652;28;20168;-76
2023/12/20 13:02:13;;;;;;;0.10;0.10;;;7.80;99.90;;;;;;5070179;28;20078;-76
2023/12/20 13:04:40;;;;;;;0.20;0.20;;;7.80;99.90;;;;;;5072715;28;20048;-75
2023/12/20 13:07:07;;;;;;;0.20;0.20;;;7.80;99.90;;;;;;5071371;28;20048;-77
2023/12/20 13:09:33;;;;;;;0.20;0.20;;;7.90;99.90;;;;;;5068337;28;20136;-76
2023/12/20 13:11:59;;;;;;;0.20;0.20;;;7.80;99.90;;;;;;5071469;28;20458;-76
2023/12/20 13:14:24;;;;;;;0.20;0.20;;;7.90;99.90;;;;;;5075454;28;20050;-76
2023/12/20 13:16:50;;;;;;;0.13;0.13;;;7.80;99.90;;;;;;5072456;28;20052;-76
2023/12/20 13:19:16;;;;;;;0.20;0.20;;;7.80;99.90;;;;;;5080914;28;20056;-76
2023/12/20 13:21:41;;;;;;;0.15;0.15;;;8.00;99.90;;;;;;5089492;28;20043;-76
2023/12/20 13:24:07;;;;;;;0.20;0.20;;;7.70;99.90;;;;;;5085896;28;20044;-76
2023/12/20 13:26:33;;;;;;;0.13;0.13;;;7.70;99.90;;;;;;5073449;28;20127;-76
2023/12/20 13:28:58;;;;;;;0.10;0.10;;;7.70;99.90;;;;;;5080510;28;20043;-75
2023/12/20 13:31:24;;;;;;;0.20;0.20;;;7.70;99.90;;;;;;5070947;28;20045;-75
2023/12/20 13:33:52;;;;;;;0.20;0.20;;;7.80;99.90;;;;;;5082501;28;20048;-75
2023/12/20 13:36:18;;;;;;;0.20;0.20;;;7.70;99.90;;;;;;5078355;28;20043;-75
2023/12/20 13:38:43;;;;;;;0.20;0.20;;;7.70;99.90;;;;;;5069831;28;20045;-76
2023/12/20 13:41:09;;;;;;;0.20;0.20;;;7.70;99.90;;;;;;5068003;28;20056;-75
2023/12/20 13:43:35;;;;;;;0.20;0.20;;;7.70;99.90;;;;;;5070204;28;20377;-75
2023/12/20 13:46:01;;;;;;;0.20;0.20;;;7.70;99.90;;;;;;5071613;28;20039;-75
2023/12/20 13:48:26;;;;;;;0.20;0.20;;;7.60;99.90;;;;;;5069550;28;20057;-75
2023/12/20 13:50:52;;;;;;;0.20;0.20;;;7.60;99.90;;;;;;5069988;28;20048;-75
2023/12/20 13:53:19;;;;;;;0.20;0.20;;;7.60;99.90;;;;;;5069180;28;20048;-76
2023/12/20 13:55:44;;;;;;;0.20;0.20;;;7.60;99.90;;;;;;5085138;28;20121;-75
2023/12/20 13:58:10;;;;;;;0.10;0.10;;;7.50;99.90;;;;;;5077856;28;20090;-75
2023/12/20 14:00:39;;;;;;;0.20;0.20;;;7.50;99.90;;;;;;5081391;28;20040;-76
2023/12/20 14:03:05;;;;;;;0.10;0.10;;;7.60;99.90;;;;;;5070393;28;20048;-75
2023/12/20 14:05:31;;;;;;;0.10;0.10;;;7.50;99.90;;;;;;5069327;28;20499;-75
2023/12/20 14:08:00;;;;;;;0.10;0.10;;;7.40;99.90;;;;;;5069500;28;20049;-75
2023/12/20 14:10:29;;;;;;;0.20;0.20;;;7.40;99.90;;;;;;5068547;28;20041;-74
2023/12/20 14:12:55;;;;;;;0.20;0.20;;;7.40;99.90;;;;;;5085142;28;20510;-74
2023/12/20 14:15:21;;;;;;;0.20;0.20;;;7.40;99.90;;;;;;5065863;28;20044;-75
2023/12/20 14:17:47;;;;;;;0.20;0.20;;;7.30;99.90;;;;;;5070630;28;20036;-75
2023/12/20 14:20:13;;;;;;;0.20;0.20;;;7.40;99.90;;;;;;5068145;28;20415;-75
2023/12/20 14:22:43;;;;;;;0.10;0.10;;;7.30;99.90;;;;;;5069501;28;20396;-75
2023/12/20 14:25:11;;;;;;;0.20;0.20;;;7.30;99.90;;;;;;5084979;28;20118;-75
2023/12/20 14:27:36;;;;;;;0.20;0.20;;;7.30;99.90;;;;;;5051486;28;20049;-75
2023/12/20 14:30:02;;;;;;;0.10;0.10;;;7.30;99.90;;;;;;5049115;28;20040;-75
2023/12/20 14:32:28;;;;;;;0.20;0.20;;;7.20;99.90;;;;;;5052065;28;20080;-75
2023/12/20 14:34:54;;;;;;;0.20;0.20;;;7.20;99.90;;;;;;5077404;28;20075;-76
2023/12/20 14:37:20;;;;;;;0.10;0.10;;;7.20;99.90;;;;;;5090660;28;20115;-75
2023/12/20 14:39:46;;;;;;;0.10;0.10;;;7.20;99.90;;;;;;5067520;28;20477;-75
2023/12/20 14:42:13;;;;;;;0.20;0.20;;;7.40;99.90;;;;;;5083436;28;20044;-76
2023/12/20 14:44:43;;;;;;;0.20;0.20;;;7.10;99.90;;;;;;5069413;28;20058;-76
2023/12/20 14:47:08;;;;;;;0.20;0.20;;;7.10;99.90;;;;;;5085732;28;20479;-74
2023/12/20 14:49:35;;;;;;;0.20;0.20;;;7.10;99.90;;;;;;5066717;28;20052;-75
2023/12/20 14:52:01;;;;;;;0.20;0.20;;;7.00;99.90;;;;;;5077038;28;20054;-76
2023/12/20 14:54:27;;;;;;;0.20;0.20;;;6.90;99.90;;;;;;5070175;28;20036;-77
2023/12/20 14:56:52;;;;;;;0.20;0.20;;;6.90;99.90;;;;;;5067289;28;20059;-76
2023/12/20 14:59:18;;;;;;;0.10;0.10;;;6.90;99.90;;;;;;5071080;28;20124;-77
2023/12/20 15:01:44;;;;;;;0.20;0.20;;;6.90;99.90;;;;;;5069618;28;20072;-76
2023/12/20 15:04:10;;;;;;;0.20;0.20;;;6.80;99.90;;;;;;5067267;28;20048;-77
2023/12/20 15:06:36;;;;;;;0.20;0.20;;;6.80;99.90;;;;;;5068277;28;20651;-74
2023/12/20 15:09:04;;;;;;;0.20;0.20;;;6.80;99.90;;;;;;5067889;28;20045;-76
2023/12/20 15:11:31;;;;;;;0.20;0.20;;;6.80;99.90;;;;;;5070232;28;20048;-75
2023/12/20 15:13:58;;;;;;;0.20;0.20;;;6.80;99.90;;;;;;5070726;28;20424;-75
2023/12/20 15:16:24;;;;;;;0.20;0.20;;;6.80;99.90;;;;;;5070708;28;20064;-75
2023/12/20 15:18:50;;;;;;;0.20;0.20;;;6.80;99.90;;;;;;5087475;28;20507;-75
2023/12/20 15:21:16;;;;;;;0.20;0.20;;;6.80;99.90;;;;;;5070893;28;20131;-75
2023/12/20 15:23:52;;;;;;;0.20;0.20;;;6.80;99.90;;;;;;5071031;28;20044;-75
2023/12/20 15:26:19;;;;;;;0.20;0.20;;;6.80;99.90;;;;;;5070453;28;20399;-75
2023/12/20 15:28:44;;;;;;;0.20;0.20;;;6.80;99.90;;;;;;5052921;28;20045;-74
2023/12/20 15:31:10;;;;;;;0.20;0.20;;;6.90;99.90;;;;;;5067076;28;20202;-74
2023/12/20 15:33:36;;;;;;;0.13;0.13;;;6.80;99.90;;;;;;5067964;28;20484;-75
2023/12/20 15:36:01;;;;;;;0.15;0.15;;;6.80;99.90;;;;;;5064100;28;20687;-75
2023/12/20 15:38:27;;;;;;;0.20;0.20;;;6.80;99.90;;;;;;5069767;28;20047;-74
2023/12/20 15:40:53;;;;;;;0.10;0.10;;;6.80;99.90;;;;;;5059209;28;20041;-74
2023/12/20 15:43:18;;;;;;;0.20;0.20;;;6.90;99.90;;;;;;5078545;28;20044;-75
2023/12/20 15:45:45;;;;;;;0.20;0.20;;;6.80;99.90;;;;;;5068579;28;20079;-75
2023/12/20 15:48:17;;;;;;;0.20;0.20;;;6.80;99.90;;;;;;5068941;28;20041;-74
2023/12/20 15:50:43;;;;;;;0.20;0.20;;;6.80;99.90;;;;;;5065022;28;20121;-75
2023/12/20 15:53:08;;;;;;;0.20;0.20;;;6.80;99.90;;;;;;5069613;28;20041;-75
2023/12/20 15:55:34;;;;;;;0.20;0.20;;;7.10;99.90;;;;;;5069625;28;20381;-80
2023/12/20 15:58:00;;;;;;;0.10;0.10;;;6.80;99.90;;;;;;5069615;28;20083;-75
2023/12/20 16:00:25;;;;;;;0.17;0.17;;;6.80;99.90;;;;;;5071387;28;20102;-75
2023/12/20 16:02:52;;;;;;;0.20;0.20;;;6.90;99.90;;;;;;5070722;28;20123;-74
2023/12/20 16:05:17;;;;;;;0.20;0.20;;;6.90;99.90;;;;;;5069403;28;20048;-74
2023/12/20 16:07:43;;;;;;;0.10;0.10;;;6.90;99.90;;;;;;5087646;28;20040;-74
2023/12/20 16:10:09;;;;;;;0.20;0.20;;;7.00;99.90;;;;;;5086393;28;20052;-76
2023/12/20 16:12:35;;;;;;;0.15;0.15;;;6.80;99.90;;;;;;5085925;28;20041;-74
2023/12/20 16:15:01;;;;;;;0.15;0.15;;;6.80;99.90;;;;;;5064282;28;20392;-74
2023/12/20 16:17:26;;;;;;;0.20;0.20;;;6.90;99.90;;;;;;5071043;28;20124;-75
2023/12/20 16:19:52;;;;;;;0.20;0.20;;;6.90;99.90;;;;;;5068387;28;20058;-74
2023/12/20 16:22:18;;;;;;;0.20;0.20;;;6.90;99.90;;;;;;5070077;28;20044;-75
2023/12/20 16:24:43;;;;;;;0.13;0.13;;;6.90;99.90;;;;;;5086194;28;20052;-75
2023/12/20 16:27:09;;;;;;;0.10;0.10;;;6.90;99.90;;;;;;5068674;28;20131;-75
2023/12/20 16:29:34;;;;;;;0.10;0.10;;;6.90;99.90;;;;;;5069891;28;20135;-75
2023/12/20 16:32:00;;;;;;;0.10;0.10;;;6.90;99.90;;;;;;5084679;28;20048;-75
2023/12/20 16:34:26;;;;;;;0.20;0.20;;;7.00;99.90;;;;;;5071078;28;20150;-76
2023/12/20 16:36:54;;;;;;;0.20;0.20;;;7.00;99.90;;;;;;5068117;28;20045;-75
2023/12/20 16:39:20;;;;;;;0.20;0.20;;;7.00;99.90;;;;;;5066289;28;20315;-75
2023/12/20 16:41:46;;;;;;;0.20;0.20;;;7.00;99.90;;;;;;5067693;28;20392;-75
2023/12/20 16:44:12;;;;;;;0.20;0.20;;;7.10;99.90;;;;;;5081272;28;20135;-75
2023/12/20 16:46:37;;;;;;;0.20;0.20;;;7.00;99.90;;;;;;5071663;28;20076;-75
2023/12/20 16:49:03;;;;;;;0.10;0.10;;;7.00;99.90;;;;;;5068359;28;20056;-75
2023/12/20 16:51:29;;;;;;;0.20;0.20;;;7.10;99.90;;;;;;5069582;28;20148;-74
2023/12/20 16:53:55;;;;;;;0.20;0.20;;;7.30;99.90;;;;;;5065778;28;20036;-74
2023/12/20 16:56:21;;;;;;;0.20;0.20;;;7.10;99.90;;;;;;5083204;28;20068;-74
2023/12/20 16:58:46;;;;;;;0.20;0.20;;;7.10;99.90;;;;;;5079113;28;20040;-74
2023/12/20 17:01:15;;;;;;;0.20;0.20;;;7.10;99.90;;;;;;5079794;28;20398;-74
2023/12/20 17:03:40;;;;;;;0.20;0.20;;;7.30;99.90;;;;;;5081635;28;20964;-74
2023/12/20 17:06:07;;;;;;;0.17;0.17;;;7.20;99.90;;;;;;5080613;28;20039;-75
2023/12/20 17:08:33;;;;;;;0.20;0.20;;;7.20;99.90;;;;;;5049063;28;20524;-74
2023/12/20 17:10:59;;;;;;;0.20;0.20;;;7.30;99.90;;;;;;5057238;28;20128;-74
2023/12/20 17:13:25;;;;;;;0.20;0.20;;;7.30;99.90;;;;;;5072326;28;20044;-74
2023/12/20 17:15:51;;;;;;;0.20;0.20;;;7.20;99.90;;;;;;5079117;28;20410;-75
2023/12/20 17:18:16;;;;;;;0.20;0.20;;;7.20;99.90;;;;;;5076966;28;20033;-74
2023/12/20 17:20:42;;;;;;;0.13;0.13;;;7.30;99.90;;;;;;5087910;28;20109;-74
2023/12/20 17:23:08;;;;;;;0.10;0.10;;;7.40;99.90;;;;;;5089493;28;20052;-74
2023/12/20 17:25:39;;;;;;;0.20;0.20;;;7.20;99.90;;;;;;5089059;28;20123;-74
2023/12/20 17:28:08;;;;;;;0.20;0.20;;;7.30;99.90;;;;;;5088193;28;20044;-74
2023/12/20 17:30:34;;;;;;;0.20;0.20;;;7.40;99.90;;;;;;5076385;28;20044;-74
2023/12/20 17:33:00;;;;;;;0.20;0.20;;;7.30;99.90;;;;;;5082819;28;20424;-73
2023/12/20 17:35:26;;;;;;;0.20;0.20;;;7.30;99.90;;;;;;5081041;28;20127;-74
2023/12/20 17:37:52;;;;;;;0.20;0.20;;;7.30;99.90;;;;;;5074442;28;20471;-75
2023/12/20 17:40:18;;;;;;;0.20;0.20;;;7.40;99.90;;;;;;5081315;28;20086;-73
2023/12/20 17:42:47;;;;;;;0.20;0.20;;;7.30;99.90;;;;;;5078448;28;20117;-73
2023/12/20 17:45:12;;;;;;;0.20;0.20;;;7.40;99.90;;;;;;5066482;28;20036;-74
2023/12/20 17:47:40;;;;;;;0.20;0.20;;;7.10;99.90;;;;;;5074644;28;20397;-77
2023/12/20 17:50:06;;;;;;;0.20;0.20;;;7.50;99.90;;;;;;5058917;28;20100;-77
2023/12/20 17:52:32;;;;;;;0.20;0.20;;;7.50;99.90;;;;;;5083569;28;20095;-77
2023/12/20 17:54:57;;;;;;;0.13;0.13;;;7.50;99.90;;;;;;5082909;28;20029;-77
2023/12/20 17:57:23;;;;;;;0.20;0.20;;;7.50;99.90;;;;;;5075190;28;20440;-78
2023/12/20 17:59:52;;;;;;;0.20;0.20;;;7.50;99.90;;;;;;5068417;28;20043;-77
2023/12/20 18:02:18;;;;;;;0.20;0.20;;;7.60;99.90;;;;;;5062700;28;20098;-79
2023/12/20 18:04:44;;;;;;;0.20;0.20;;;7.70;99.90;;;;;;5060344;28;20503;-80
2023/12/20 18:07:11;;;;;;;0.20;0.20;;;7.60;99.90;;;;;;5067113;28;20127;-79
2023/12/20 18:09:37;;;;;;;0.20;0.20;;;7.60;99.90;;;;;;5067790;28;20052;-79
2023/12/20 18:12:03;;;;;;;0.10;0.10;;;7.70;99.90;;;;;;5064065;28;20110;-80
2023/12/20 18:14:30;;;;;;;0.10;0.10;;;7.70;99.90;;;;;;5067642;28;20048;-80
2023/12/20 18:16:55;;;;;;;0.17;0.17;;;7.70;99.90;;;;;;5067315;28;20446;-80
2023/12/20 18:19:21;;;;;;;0.20;0.20;;;7.70;99.90;;;;;;5064621;28;20175;-79
2023/12/20 18:21:47;;;;;;;0.10;0.10;;;7.70;99.90;;;;;;5066380;28;20040;-78
2023/12/20 18:24:12;;;;;;;0.10;0.10;;;7.80;99.90;;;;;;5067771;28;20055;-79
2023/12/20 18:26:38;;;;;;;0.10;0.10;;;7.80;99.90;;;;;;5065152;28;20064;-79
2023/12/20 18:29:05;;;;;;;0.17;0.17;;;7.80;99.90;;;;;;5066467;28;20047;-80
2023/12/20 18:31:30;;;;;;;0.20;0.20;;;7.80;99.90;;;;;;5067666;28;20693;-79
2023/12/20 18:33:56;;;;;;;0.20;0.20;;;7.90;99.90;;;;;;5064757;28;20049;-79
2023/12/20 18:36:22;;;;;;;0.20;0.20;;;7.90;99.90;;;;;;5066711;28;20037;-79
2023/12/20 18:38:47;;;;;;;0.13;0.13;;;7.90;99.90;;;;;;5067300;28;20484;-79
2023/12/20 18:41:14;;;;;;;0.20;0.20;;;8.00;99.90;;;;;;5064535;28;20048;-80
2023/12/20 18:43:43;;;;;;;0.10;0.10;;;7.90;99.90;;;;;;5064241;28;20040;-80
2023/12/20 18:46:08;;;;;;;0.10;0.10;;;8.00;99.90;;;;;;5066534;28;20135;-80
2023/12/20 18:48:34;;;;;;;0.20;0.20;;;8.00;99.90;;;;;;5066393;28;20615;-79
2023/12/20 18:51:00;;;;;;;0.20;0.20;;;8.10;99.90;;;;;;5049744;28;20048;-79
2023/12/20 18:53:26;;;;;;;0.20;0.20;;;8.10;99.90;;;;;;5049324;28;20396;-80
2023/12/20 18:55:52;;;;;;;0.10;0.10;;;8.10;99.90;;;;;;5065512;28;20064;-80
2023/12/20 18:58:17;;;;;;;0.20;0.20;;;8.10;99.90;;;;;;5066208;28;20049;-80
2023/12/20 19:00:43;;;;;;;0.10;0.10;;;8.10;99.90;;;;;;5067343;28;20056;-80
2023/12/20 19:03:09;;;;;;;0.20;0.20;;;8.20;99.90;;;;;;5065750;28;20048;-80
2023/12/20 19:05:36;;;;;;;0.20;0.20;;;8.30;99.90;;;;;;5065020;28;20048;-80
2023/12/20 19:08:03;;;;;;;0.13;0.13;;;8.20;99.90;;;;;;5082340;28;20053;-80
2023/12/20 19:10:28;;;;;;;0.10;0.10;;;8.30;99.90;;;;;;5066015;28;20422;-80
2023/12/20 19:12:54;;;;;;;0.20;0.20;;;8.30;99.90;;;;;;5067617;28;20055;-79
2023/12/20 19:15:20;;;;;;;0.10;0.10;;;8.50;99.90;;;;;;5064108;28;20040;-80
2023/12/20 19:17:46;;;;;;;0.20;0.20;;;8.40;99.90;;;;;;5067069;28;20044;-79
2023/12/20 19:20:12;;;;;;;0.20;0.20;;;8.30;99.90;;;;;;5066839;28;20495;-79
2023/12/20 19:22:38;;;;;;;0.20;0.20;;;8.40;99.90;;;;;;5066597;28;20109;-79
2023/12/20 19:25:08;;;;;;;0.20;0.20;;;8.40;99.90;;;;;;5065155;28;20048;-79
2023/12/20 19:27:34;;;;;;;0.20;0.20;;;8.50;99.90;;;;;;5065892;28;20044;-79
2023/12/20 19:30:00;;;;;;;0.20;0.20;;;8.50;99.90;;;;;;5063431;28;20549;-79
2023/12/20 19:32:27;;;;;;;0.13;0.13;;;8.50;99.90;;;;;;5066433;28;20547;-78
2023/12/20 19:34:53;;;;;;;0.20;0.20;;;8.60;99.90;;;;;;5066382;28;20488;-79
2023/12/20 19:37:18;;;;;;;0.10;0.10;;;8.50;99.90;;;;;;5066520;28;20048;-79
2023/12/20 19:39:44;;;;;;;0.20;0.20;;;8.50;99.90;;;;;;5066336;28;20468;-80
2023/12/20 19:42:10;;;;;;;0.20;0.20;;;8.60;99.90;;;;;;5064183;28;20083;-79